createdAt,value
2023-02-18T00:01:24.082Z,85.69
2023-02-18T00:03:53.110Z,85.24
2023-02-18T00:06:34.662Z,85.59
2023-02-18T00:09:04.287Z,85.89
2023-02-18T00:11:35.049Z,85.63
2023-02-18T00:14:04.433Z,85.56
2023-02-18T00:16:32.930Z,84.94
2023-02-18T00:19:05.092Z,84.96
2023-02-18T00:21:35.669Z,84.99
2023-02-18T00:24:03.700Z,84.67
2023-02-18T00:26:31.567Z,84.94
2023-02-18T00:28:59.487Z,84.60
2023-02-18T00:31:32.866Z,84.74
2023-02-18T00:34:01.517Z,84.28
2023-02-18T00:36:30.048Z,84.22
2023-02-18T00:39:04.720Z,84.13
2023-02-18T00:41:32.850Z,84.93
2023-02-18T00:44:00.814Z,84.76
2023-02-18T00:46:29.782Z,84.80
2023-02-18T00:48:58.012Z,85.84
2023-02-18T00:51:26.713Z,85.57
2023-02-18T00:53:55.049Z,85.41
2023-02-18T00:56:22.819Z,85.21
2023-02-18T00:58:51.505Z,85.38
2023-02-18T01:01:20.200Z,85.70
2023-02-18T01:03:47.993Z,85.88
2023-02-18T01:06:15.969Z,85.93
2023-02-18T01:08:44.315Z,86.90
2023-02-18T01:11:13.130Z,86.43
2023-02-18T01:13:41.716Z,86.87
2023-02-18T01:16:10.708Z,86.57
2023-02-18T01:18:39.758Z,86.88
2023-02-18T01:21:09.766Z,86.33
2023-02-18T01:23:41.399Z,86.12
2023-02-18T01:26:10.414Z,86.20
2023-02-18T01:28:38.530Z,85.85
2023-02-18T01:31:13.730Z,86.03
2023-02-18T01:33:42.168Z,86.03
2023-02-18T01:36:11.209Z,86.40
2023-02-18T01:38:39.459Z,85.83
2023-02-18T01:41:07.652Z,85.90
2023-02-18T01:43:36.167Z,85.99
2023-02-18T01:46:16.984Z,85.84
2023-02-18T01:48:47.322Z,86.37
2023-02-18T01:51:26.736Z,86.33
2023-02-18T01:54:07.654Z,86.54
2023-02-18T01:56:51.069Z,87.21
2023-02-18T01:59:25.239Z,86.67
2023-02-18T02:01:54.145Z,86.26
2023-02-18T02:04:23.032Z,85.97
2023-02-18T02:06:50.842Z,86.69
2023-02-18T02:09:21.508Z,86.42
2023-02-18T02:11:58.083Z,86.24
2023-02-18T02:14:53.836Z,87.06
2023-02-18T02:17:59.158Z,86.68
2023-02-18T02:20:47.090Z,87.20
2023-02-18T02:23:20.565Z,86.97
2023-02-18T02:26:24.798Z,86.91
2023-02-18T02:29:11.116Z,87.58
2023-02-18T02:32:04.361Z,87.24
2023-02-18T02:34:59.328Z,86.88
2023-02-18T02:38:00.972Z,86.93
2023-02-18T02:40:50.040Z,86.55
2023-02-18T02:43:29.054Z,86.50
2023-02-18T02:46:10.589Z,86.50
2023-02-18T02:48:47.898Z,86.25
2023-02-18T02:51:29.162Z,86.26
2023-02-18T02:54:09.335Z,86.43
2023-02-18T02:56:37.099Z,86.29
2023-02-18T02:59:09.087Z,86.04
2023-02-18T03:02:19.667Z,86.14
2023-02-18T03:05:41.302Z,85.86
2023-02-18T03:08:33.103Z,86.01
2023-02-18T03:11:08.566Z,85.78
2023-02-18T03:13:38.926Z,85.73
2023-02-18T03:16:30.901Z,85.76
2023-02-18T03:19:03.352Z,85.65
2023-02-18T03:21:36.568Z,85.55
2023-02-18T03:24:14.703Z,85.51
2023-02-18T03:26:48.239Z,85.31
2023-02-18T03:29:18.455Z,85.18
2023-02-18T03:31:50.448Z,85.10
2023-02-18T03:34:25.158Z,85.02
2023-02-18T03:36:54.581Z,84.91
2023-02-18T03:39:26.480Z,84.96
2023-02-18T03:41:54.774Z,84.89
2023-02-18T03:44:22.833Z,84.88
2023-02-18T03:46:50.570Z,84.74
2023-02-18T03:49:18.282Z,84.77
2023-02-18T03:51:46.195Z,84.74
2023-02-18T03:54:15.688Z,84.50
2023-02-18T03:56:43.760Z,84.60
2023-02-18T03:59:13.070Z,84.48
2023-02-18T04:01:41.514Z,84.57
2023-02-18T04:04:09.327Z,84.57
2023-02-18T04:06:37.287Z,84.51
2023-02-18T04:09:09.856Z,84.50
2023-02-18T04:11:39.748Z,84.42
2023-02-18T04:14:08.408Z,84.53
2023-02-18T04:16:36.296Z,84.39
2023-02-18T04:19:04.093Z,84.28
2023-02-18T04:21:31.859Z,84.13
2023-02-18T04:23:59.557Z,84.15
2023-02-18T04:26:27.319Z,84.10
2023-02-18T04:28:54.947Z,84.04
2023-02-18T04:31:22.791Z,83.93
2023-02-18T04:33:50.548Z,84.03
2023-02-18T04:36:18.207Z,83.87
2023-02-18T04:38:45.892Z,83.85
2023-02-18T04:41:14.063Z,83.70
2023-02-18T04:43:41.684Z,83.58
2023-02-18T04:46:09.667Z,83.63
2023-02-18T04:48:37.592Z,83.49
2023-02-18T04:51:05.816Z,83.67
2023-02-18T04:53:33.527Z,83.56
2023-02-18T04:56:01.659Z,83.60
2023-02-18T04:58:29.380Z,83.70
2023-02-18T05:01:01.818Z,83.86
2023-02-18T05:03:31.278Z,83.88
2023-02-18T05:05:59.834Z,83.69
2023-02-18T05:08:27.655Z,83.66
2023-02-18T05:10:55.406Z,83.54
2023-02-18T05:13:23.999Z,83.57
2023-02-18T05:15:52.052Z,83.50
2023-02-18T05:18:19.769Z,83.37
2023-02-18T05:20:47.435Z,83.29
2023-02-18T05:23:15.845Z,83.22
2023-02-18T05:25:43.494Z,82.90
2023-02-18T05:28:11.148Z,82.89
2023-02-18T05:30:39.047Z,82.55
2023-02-18T05:33:06.757Z,82.21
2023-02-18T05:35:34.624Z,82.08
2023-02-18T05:38:02.381Z,81.95
2023-02-18T05:40:30.188Z,81.86
2023-02-18T05:42:57.873Z,81.71
2023-02-18T05:45:25.588Z,81.50
2023-02-18T05:47:53.305Z,81.23
2023-02-18T05:50:21.171Z,80.82
2023-02-18T05:52:48.912Z,80.75
2023-02-18T05:55:16.670Z,80.59
2023-02-18T05:57:44.352Z,80.75
2023-02-18T06:00:12.738Z,80.40
2023-02-18T06:02:40.732Z,80.47
2023-02-18T06:05:08.818Z,80.39
2023-02-18T06:07:36.764Z,80.14
2023-02-18T06:10:05.728Z,80.21
2023-02-18T06:12:33.599Z,80.26
2023-02-18T06:15:01.261Z,80.13
2023-02-18T06:17:28.925Z,80.16
2023-02-18T06:19:56.643Z,80.21
2023-02-18T06:22:24.284Z,80.33
2023-02-18T06:24:51.980Z,80.60
2023-02-18T06:27:19.689Z,80.78
2023-02-18T06:29:47.317Z,80.80
2023-02-18T06:32:15.075Z,80.80
2023-02-18T06:34:42.917Z,80.86
2023-02-18T06:37:10.606Z,80.86
2023-02-18T06:39:39.828Z,80.90
2023-02-18T06:42:07.407Z,80.97
2023-02-18T06:44:37.500Z,81.14
2023-02-18T06:47:05.567Z,81.13
2023-02-18T06:49:33.274Z,81.17
2023-02-18T06:52:00.848Z,81.08
2023-02-18T06:54:28.529Z,81.05
2023-02-18T06:56:56.314Z,81.02
2023-02-18T06:59:24.070Z,80.88
2023-02-18T07:01:51.700Z,80.81
2023-02-18T07:04:19.434Z,80.78
2023-02-18T07:06:47.057Z,80.71
2023-02-18T07:09:14.752Z,80.72
2023-02-18T07:11:42.592Z,80.81
2023-02-18T07:14:10.326Z,80.69
2023-02-18T07:16:38.039Z,80.58
2023-02-18T07:19:05.772Z,80.46
2023-02-18T07:21:33.532Z,80.33
2023-02-18T07:24:01.235Z,80.19
2023-02-18T07:26:29.022Z,80.19
2023-02-18T07:28:56.792Z,79.87
2023-02-18T07:31:24.628Z,79.77
2023-02-18T07:33:52.409Z,79.65
2023-02-18T07:36:20.080Z,79.31
2023-02-18T07:38:47.931Z,78.93
2023-02-18T07:41:22.102Z,78.67
2023-02-18T07:43:50.463Z,78.44
2023-02-18T07:46:18.488Z,78.29
2023-02-18T07:48:46.292Z,77.27
2023-02-18T07:51:14.582Z,77.21
2023-02-18T07:53:42.916Z,76.96
2023-02-18T07:56:10.978Z,76.65
2023-02-18T07:58:40.146Z,76.73
2023-02-18T08:01:15.767Z,76.81
2023-02-18T08:03:44.144Z,76.22
2023-02-18T08:06:23.305Z,76.59
2023-02-18T08:08:51.099Z,75.66
2023-02-18T08:11:19.803Z,74.67
2023-02-18T08:13:49.272Z,74.98
2023-02-18T08:16:19.004Z,74.74
2023-02-18T08:18:48.958Z,74.39
2023-02-18T08:21:18.496Z,74.15
2023-02-18T08:23:46.321Z,74.08
2023-02-18T08:26:14.905Z,74.44
2023-02-18T08:28:42.990Z,74.21
2023-02-18T08:31:18.173Z,73.59
2023-02-18T08:33:45.898Z,73.80
2023-02-18T08:36:13.678Z,73.76
2023-02-18T08:38:41.397Z,73.42
2023-02-18T08:41:10.724Z,73.68
2023-02-18T08:43:38.986Z,72.93
2023-02-18T08:46:06.927Z,72.82
2023-02-18T08:48:34.770Z,72.74
2023-02-18T08:51:12.849Z,72.61
2023-02-18T08:53:41.152Z,72.40
2023-02-18T08:56:11.895Z,72.10
2023-02-18T08:58:39.924Z,71.58
2023-02-18T09:01:10.338Z,71.42
2023-02-18T09:03:39.068Z,71.18
2023-02-18T09:06:07.377Z,71.05
2023-02-18T09:08:35.116Z,71.17
2023-02-18T09:11:09.225Z,70.91
2023-02-18T09:13:37.093Z,70.99
2023-02-18T09:16:11.829Z,70.65
2023-02-18T09:18:39.902Z,70.83
2023-02-18T09:21:10.769Z,70.81
2023-02-18T09:23:38.817Z,70.26
2023-02-18T09:26:08.548Z,70.79
2023-02-18T09:28:37.691Z,70.71
2023-02-18T09:31:14.240Z,70.19
2023-02-18T09:33:45.921Z,70.11
2023-02-18T09:36:14.459Z,70.26
2023-02-18T09:38:42.223Z,69.94
2023-02-18T09:41:31.384Z,69.92
2023-02-18T09:44:05.132Z,69.67
2023-02-18T09:46:39.972Z,69.28
2023-02-18T09:49:29.707Z,69.46
2023-02-18T09:52:03.669Z,68.75
2023-02-18T09:54:31.322Z,68.91
2023-02-18T09:57:00.955Z,68.76
2023-02-18T09:59:29.544Z,68.37
2023-02-18T10:01:58.223Z,68.23
2023-02-18T10:04:33.253Z,68.18
2023-02-18T10:07:04.781Z,68.08
2023-02-18T10:09:42.094Z,68.07
2023-02-18T10:12:20.048Z,68.42
2023-02-18T10:14:55.924Z,67.73
2023-02-18T10:17:31.033Z,67.98
2023-02-18T10:20:01.444Z,67.81
2023-02-18T10:22:31.345Z,67.95
2023-02-18T10:25:01.974Z,67.72
2023-02-18T10:27:36.437Z,67.40
2023-02-18T10:30:20.146Z,66.82
2023-02-18T10:32:49.749Z,66.44
2023-02-18T10:35:32.317Z,66.84
2023-02-18T10:38:14.441Z,67.17
2023-02-18T10:41:09.613Z,67.17
2023-02-18T10:44:01.609Z,65.94
2023-02-18T10:46:54.245Z,66.18
2023-02-18T10:49:56.054Z,66.53
2023-02-18T10:52:24.649Z,66.63
2023-02-18T10:55:08.227Z,66.32
2023-02-18T10:57:36.542Z,66.72
2023-02-18T11:00:28.965Z,66.73
2023-02-18T11:03:20.204Z,66.25
2023-02-18T11:05:50.346Z,66.78
2023-02-18T11:08:30.457Z,66.56
2023-02-18T11:10:59.313Z,66.16
2023-02-18T11:13:33.979Z,66.51
2023-02-18T11:16:13.220Z,66.22
2023-02-18T11:18:43.978Z,65.25
2023-02-18T11:21:46.830Z,65.19
2023-02-18T11:24:17.823Z,65.16
2023-02-18T11:26:45.941Z,64.81
2023-02-18T11:29:22.076Z,64.97
2023-02-18T11:31:53.906Z,64.39
2023-02-18T11:34:24.704Z,64.56
2023-02-18T11:36:53.769Z,63.75
2023-02-18T11:39:30.131Z,63.70
2023-02-18T11:42:01.730Z,63.02
2023-02-18T11:44:39.600Z,63.76
2023-02-18T11:47:16.243Z,63.72
2023-02-18T11:49:46.106Z,62.89
2023-02-18T11:52:28.618Z,63.52
2023-02-18T11:55:07.454Z,62.75
2023-02-18T11:57:38.353Z,62.29
2023-02-18T12:00:23.171Z,62.67
2023-02-18T12:02:52.046Z,62.20
2023-02-18T12:05:26.018Z,61.80
2023-02-18T12:08:00.892Z,61.40
2023-02-18T12:10:34.224Z,62.23
2023-02-18T12:13:12.219Z,62.22
2023-02-18T12:16:14.510Z,61.79
2023-02-18T12:19:22.294Z,60.82
2023-02-18T12:22:23.338Z,60.48
2023-02-18T12:25:14.970Z,60.73
2023-02-18T12:28:15.835Z,60.89
2023-02-18T12:31:17.410Z,61.21
2023-02-18T12:33:48.014Z,60.82
2023-02-18T12:36:39.631Z,60.73
2023-02-18T12:39:47.629Z,60.75
2023-02-18T12:42:33.940Z,61.25
2023-02-18T12:45:36.237Z,60.81
2023-02-18T12:48:37.468Z,60.48
2023-02-18T12:51:16.961Z,61.14
2023-02-18T12:54:23.492Z,61.37
2023-02-18T12:57:17.135Z,61.11
2023-02-18T13:00:17.111Z,60.89
2023-02-18T13:03:15.254Z,61.13
2023-02-18T13:05:51.645Z,60.33
2023-02-18T13:08:34.469Z,59.94
2023-02-18T13:11:05.605Z,60.78
2023-02-18T13:13:42.252Z,60.11
2023-02-18T13:16:21.052Z,59.74
2023-02-18T13:18:57.274Z,59.78
2023-02-18T13:21:25.475Z,59.41
2023-02-18T13:23:59.665Z,59.65
2023-02-18T13:26:30.217Z,59.85
2023-02-18T13:29:31.083Z,59.70
2023-02-18T13:32:27.164Z,59.20
2023-02-18T13:35:08.294Z,59.12
2023-02-18T13:37:54.017Z,59.02
2023-02-18T13:40:26.725Z,59.26
2023-02-18T13:42:55.241Z,59.04
2023-02-18T13:45:29.156Z,59.23
2023-02-18T13:47:58.072Z,58.54
2023-02-18T13:50:28.962Z,58.48
2023-02-18T13:53:08.615Z,58.26
2023-02-18T13:55:39.308Z,58.47
2023-02-18T13:58:25.700Z,58.69
2023-02-18T14:01:25.139Z,58.75
2023-02-18T14:03:59.135Z,59.19
2023-02-18T14:06:38.715Z,59.56
2023-02-18T14:09:27.022Z,59.34
2023-02-18T14:12:17.354Z,59.55
2023-02-18T14:14:45.514Z,59.70
2023-02-18T14:17:31.607Z,59.38
2023-02-18T14:20:02.321Z,59.72
2023-02-18T14:22:32.663Z,59.21
2023-02-18T14:25:23.890Z,59.55
2023-02-18T14:27:54.070Z,59.29
2023-02-18T14:30:24.676Z,59.53
2023-02-18T14:32:57.502Z,59.49
2023-02-18T14:35:52.966Z,59.42
2023-02-18T14:38:45.135Z,59.48
2023-02-18T14:41:55.686Z,59.61
2023-02-18T14:44:45.068Z,59.63
2023-02-18T14:47:24.936Z,59.43
2023-02-18T14:50:00.867Z,59.67
2023-02-18T14:52:41.707Z,59.65
2023-02-18T14:55:37.457Z,59.76
2023-02-18T14:58:12.227Z,59.85
2023-02-18T15:00:44.383Z,59.77
2023-02-18T15:03:18.950Z,60.03
2023-02-18T15:05:47.522Z,60.27
2023-02-18T15:08:24.122Z,60.38
2023-02-18T15:10:59.933Z,60.56
2023-02-18T15:13:47.453Z,60.75
2023-02-18T15:16:24.796Z,60.80
2023-02-18T15:18:59.973Z,60.79
2023-02-18T15:21:36.548Z,60.86
2023-02-18T15:24:38.068Z,60.93
2023-02-18T15:27:13.846Z,61.21
2023-02-18T15:29:41.787Z,61.27
2023-02-18T15:32:23.675Z,61.42
2023-02-18T15:34:54.308Z,61.52
2023-02-18T15:37:22.019Z,61.68
2023-02-18T15:39:49.875Z,61.94
2023-02-18T15:42:33.157Z,62.04
2023-02-18T15:45:20.987Z,62.32
2023-02-18T15:47:52.628Z,62.55
2023-02-18T15:50:37.534Z,62.52
2023-02-18T15:53:14.788Z,62.79
2023-02-18T15:55:44.947Z,62.95
2023-02-18T15:58:18.062Z,62.95
2023-02-18T16:00:55.228Z,63.02
2023-02-18T16:03:31.727Z,62.86
2023-02-18T16:06:22.852Z,62.98
2023-02-18T16:09:31.629Z,63.11
2023-02-18T16:12:03.221Z,63.27
2023-02-18T16:14:33.438Z,63.43
2023-02-18T16:17:16.594Z,63.65
2023-02-18T16:20:04.382Z,64.09
2023-02-18T16:22:32.725Z,64.20
2023-02-18T16:25:22.067Z,64.60
2023-02-18T16:27:58.826Z,64.81
2023-02-18T16:30:30.203Z,65.05
2023-02-18T16:32:59.090Z,65.02
2023-02-18T16:35:44.005Z,65.18
2023-02-18T16:38:23.918Z,65.37
2023-02-18T16:40:53.275Z,65.57
2023-02-18T16:43:29.952Z,65.68
2023-02-18T16:46:00.031Z,65.92
2023-02-18T16:48:29.379Z,65.96
2023-02-18T16:50:57.551Z,66.27
2023-02-18T16:53:25.432Z,66.27
2023-02-18T16:55:53.180Z,66.34
2023-02-18T16:58:20.907Z,66.40
2023-02-18T17:00:51.114Z,66.50
2023-02-18T17:03:19.568Z,66.67
2023-02-18T17:05:47.782Z,66.71
2023-02-18T17:08:17.460Z,66.76
2023-02-18T17:10:45.732Z,66.85
2023-02-18T17:13:22.382Z,67.22
2023-02-18T17:15:53.024Z,67.39
2023-02-18T17:18:21.314Z,67.42
2023-02-18T17:20:50.092Z,67.60
2023-02-18T17:23:20.100Z,67.67
2023-02-18T17:25:51.848Z,67.94
2023-02-18T17:28:20.479Z,67.99
2023-02-18T17:30:53.706Z,67.91
2023-02-18T17:33:21.467Z,68.02
2023-02-18T17:35:49.413Z,67.91
2023-02-18T17:38:19.637Z,68.05
2023-02-18T17:40:47.479Z,68.07
2023-02-18T17:43:16.769Z,68.09
2023-02-18T17:45:53.917Z,68.52
2023-02-18T17:48:21.918Z,68.69
2023-02-18T17:50:49.646Z,68.64
2023-02-18T17:53:18.681Z,68.75
2023-02-18T17:55:48.208Z,68.90
2023-02-18T17:58:17.262Z,69.13
2023-02-18T18:00:51.827Z,69.30
2023-02-18T18:03:20.514Z,69.67
2023-02-18T18:05:50.919Z,69.42
2023-02-18T18:08:19.196Z,69.37
2023-02-18T18:10:50.998Z,69.58
2023-02-18T18:13:27.279Z,69.64
2023-02-18T18:15:57.643Z,69.78
2023-02-18T18:18:26.743Z,69.64
2023-02-18T18:21:02.360Z,69.70
2023-02-18T18:23:30.438Z,70.02
2023-02-18T18:25:59.769Z,69.97
2023-02-18T18:28:28.275Z,70.15
2023-02-18T18:30:57.773Z,70.14
2023-02-18T18:33:31.604Z,70.20
2023-02-18T18:36:00.517Z,70.50
2023-02-18T18:38:30.619Z,70.95
2023-02-18T18:40:58.372Z,70.73
2023-02-18T18:43:33.165Z,70.76
2023-02-18T18:46:01.552Z,70.89
2023-02-18T18:48:29.548Z,71.65
2023-02-18T18:50:59.943Z,72.26
2023-02-18T18:53:35.671Z,71.92
2023-02-18T18:56:09.452Z,71.65
2023-02-18T18:58:37.179Z,71.81
2023-02-18T19:01:08.293Z,71.80
2023-02-18T19:03:38.784Z,72.08
2023-02-18T19:06:06.893Z,72.10
2023-02-18T19:08:35.414Z,72.43
2023-02-18T19:11:03.511Z,73.53
2023-02-18T19:13:33.243Z,72.78
2023-02-18T19:16:16.141Z,72.77
2023-02-18T19:18:43.888Z,73.07
2023-02-18T19:21:13.283Z,73.56
2023-02-18T19:23:41.487Z,73.68
2023-02-18T19:26:09.894Z,73.31
2023-02-18T19:28:37.811Z,73.18
2023-02-18T19:31:11.052Z,73.24
2023-02-18T19:33:40.243Z,73.30
2023-02-18T19:36:12.728Z,73.91
2023-02-18T19:38:40.636Z,73.77
2023-02-18T19:41:13.924Z,73.58
2023-02-18T19:43:43.869Z,74.01
2023-02-18T19:46:14.479Z,73.78
2023-02-18T19:48:43.132Z,74.18
2023-02-18T19:51:11.394Z,74.09
2023-02-18T19:53:39.308Z,74.06
2023-02-18T19:56:08.547Z,74.17
2023-02-18T19:58:37.267Z,74.20
2023-02-18T20:01:05.439Z,74.27
2023-02-18T20:03:33.129Z,73.97
2023-02-18T20:06:00.924Z,73.82
2023-02-18T20:08:28.643Z,73.85
2023-02-18T20:11:00.282Z,73.63
2023-02-18T20:13:28.385Z,73.54
2023-02-18T20:15:56.285Z,73.40
2023-02-18T20:18:24.195Z,73.26
2023-02-18T20:20:52.731Z,73.34
2023-02-18T20:23:20.479Z,73.15
2023-02-18T20:25:48.757Z,73.06
2023-02-18T20:28:16.842Z,72.97
2023-02-18T20:30:45.346Z,72.97
2023-02-18T20:33:15.434Z,73.04
2023-02-18T20:35:43.119Z,72.97
2023-02-18T20:38:11.041Z,72.91
2023-02-18T20:40:38.847Z,72.78
2023-02-18T20:43:06.595Z,72.65
2023-02-18T20:45:34.506Z,72.63
2023-02-18T20:48:02.196Z,72.63
2023-02-18T20:50:30.046Z,72.60
2023-02-18T20:52:57.653Z,72.59
2023-02-18T20:55:25.375Z,72.52
2023-02-18T20:57:53.199Z,72.53
2023-02-18T21:00:20.955Z,72.49
2023-02-18T21:02:48.740Z,72.54
2023-02-18T21:05:16.673Z,72.48
2023-02-18T21:07:44.418Z,72.44
2023-02-18T21:10:12.136Z,72.43
2023-02-18T21:12:39.857Z,72.55
2023-02-18T21:15:07.823Z,72.60
2023-02-18T21:17:35.496Z,73.00
2023-02-18T21:20:03.101Z,72.94
2023-02-18T21:22:30.875Z,73.14
2023-02-18T21:25:00.234Z,73.40
2023-02-18T21:27:27.956Z,73.57
2023-02-18T21:29:56.177Z,73.41
2023-02-18T21:32:24.051Z,73.55
2023-02-18T21:34:52.027Z,73.87
2023-02-18T21:37:19.738Z,73.80
2023-02-18T21:39:47.586Z,74.05
2023-02-18T21:42:15.266Z,74.65
2023-02-18T21:44:43.385Z,74.28
2023-02-18T21:47:11.811Z,74.23
2023-02-18T21:49:39.667Z,74.25
2023-02-18T21:52:10.565Z,74.27
2023-02-18T21:54:41.058Z,74.31
2023-02-18T21:57:14.749Z,74.46
2023-02-18T21:59:43.181Z,74.58
2023-02-18T22:02:17.938Z,74.45
2023-02-18T22:04:46.741Z,74.78
2023-02-18T22:07:14.559Z,74.83
2023-02-18T22:09:42.391Z,74.71
2023-02-18T22:12:10.894Z,74.80
2023-02-18T22:14:39.607Z,74.88
2023-02-18T22:17:07.714Z,75.03
2023-02-18T22:19:35.746Z,75.00
2023-02-18T22:22:03.999Z,75.08
2023-02-18T22:24:32.775Z,75.39
2023-02-18T22:27:03.855Z,75.31
2023-02-18T22:29:33.266Z,75.25
2023-02-18T22:32:01.468Z,75.55
2023-02-18T22:34:29.549Z,75.37
2023-02-18T22:36:57.281Z,75.34
2023-02-18T22:39:25.617Z,75.43
2023-02-18T22:41:53.314Z,75.42
2023-02-18T22:44:21.574Z,75.45
2023-02-18T22:46:49.303Z,75.44
2023-02-18T22:49:17.133Z,75.46
2023-02-18T22:51:45.544Z,75.40
2023-02-18T22:54:17.939Z,75.41
2023-02-18T22:56:47.623Z,75.51
2023-02-18T22:59:17.310Z,75.42
2023-02-18T23:01:50.698Z,75.43
2023-02-18T23:04:19.963Z,75.97
2023-02-18T23:06:48.266Z,76.74
2023-02-18T23:09:19.461Z,76.08
2023-02-18T23:11:50.413Z,76.12
2023-02-18T23:14:22.466Z,76.31
2023-02-18T23:17:19.898Z,76.28
2023-02-18T23:19:50.305Z,76.15
2023-02-18T23:22:20.484Z,76.14
2023-02-18T23:24:48.549Z,76.04
2023-02-18T23:27:17.203Z,76.10
2023-02-18T23:29:44.951Z,76.45
2023-02-18T23:32:12.756Z,76.26
2023-02-18T23:34:40.595Z,76.31
2023-02-18T23:37:08.464Z,76.29
2023-02-18T23:39:36.374Z,76.30
2023-02-18T23:42:04.411Z,76.46
2023-02-18T23:44:32.177Z,76.68
2023-02-18T23:47:01.310Z,76.71
2023-02-18T23:49:29.908Z,76.71
2023-02-18T23:51:58.673Z,76.51
2023-02-18T23:54:26.596Z,76.31
2023-02-18T23:56:54.309Z,76.17
2023-02-18T23:59:22.395Z,76.21
